Time;durP1;ratioP1;P1;durP2;ratioP2;P2;SDS_P1;SDS_P2;PMS_P1;PMS_P2;Temp;Humidity;BMP_temperature;BMP_pressure;BME280_temperature;BME280_humidity;BME280_pressure;Samples;Min_cycle;Max_cycle;Signal;HPM_P1;HPM_P2
2023/12/08 00:01:42;;;;;;;2.90;2.10;;;15.30;45.50;;;;;;6252954;22;45387;-64
2023/12/08 00:04:10;;;;;;;3.42;2.50;;;15.30;45.20;;;;;;6256924;22;46372;-64
2023/12/08 00:07:09;;;;;;;3.03;2.50;;;15.30;45.40;;;;;;6259429;22;45075;-63
2023/12/08 00:09:36;;;;;;;2.90;2.00;;;15.30;45.10;;;;;;6259257;22;45035;-64
2023/12/08 00:12:16;;;;;;;2.80;2.13;;;15.30;45.10;;;;;;6265059;22;45086;-64
2023/12/08 00:14:56;;;;;;;2.78;2.03;;;15.30;45.10;;;;;;6265897;22;46309;-64
2023/12/08 00:17:26;;;;;;;2.28;1.98;;;15.30;45.20;;;;;;6266399;22;45115;-64
2023/12/08 00:20:11;;;;;;;3.22;2.22;;;15.30;45.20;;;;;;6271463;22;45165;-64
2023/12/08 00:23:04;;;;;;;3.17;2.30;;;15.30;45.50;;;;;;6273006;22;45067;-63
2023/12/08 00:26:12;;;;;;;3.40;2.10;;;15.30;45.40;;;;;;6276831;22;46653;-63
2023/12/08 00:29:19;;;;;;;2.92;2.13;;;15.30;45.20;;;;;;6279527;22;45263;-63
2023/12/08 00:31:48;;;;;;;3.55;2.15;;;15.30;45.10;;;;;;6267256;22;45130;-63
2023/12/08 00:34:34;;;;;;;2.92;1.95;;;15.20;45.00;;;;;;6231413;22;44999;-63
2023/12/08 00:37:01;;;;;;;3.35;2.28;;;15.30;44.70;;;;;;6219376;22;47448;-63
2023/12/08 00:39:41;;;;;;;3.15;2.25;;;15.30;44.00;;;;;;6235131;22;45186;-63
2023/12/08 00:42:35;;;;;;;4.10;2.75;;;15.30;43.50;;;;;;6231957;22;45110;-63
2023/12/08 00:45:02;;;;;;;3.15;2.25;;;15.20;43.10;;;;;;6237506;22;45337;-63
2023/12/08 00:47:40;;;;;;;3.80;2.42;;;15.20;42.90;;;;;;6244459;22;45421;-63
2023/12/08 00:50:27;;;;;;;4.43;2.45;;;15.20;42.90;;;;;;6246008;22;44599;-63
2023/12/08 00:52:54;;;;;;;4.50;2.70;;;15.20;42.60;;;;;;6250851;22;45302;-63
2023/12/08 00:55:24;;;;;;;3.88;2.40;;;15.20;42.70;;;;;;6218560;22;45379;-65
2023/12/08 00:58:28;;;;;;;3.58;2.33;;;15.10;42.60;;;;;;6270695;22;46452;-63
2023/12/08 01:01:09;;;;;;;2.85;2.13;;;15.20;42.80;;;;;;6292125;22;45111;-63
2023/12/08 01:03:59;;;;;;;4.45;2.67;;;15.20;43.20;;;;;;6301325;22;45185;-63
2023/12/08 01:06:26;;;;;;;3.80;2.60;;;15.20;43.30;;;;;;6305243;22;45027;-64
2023/12/08 01:08:53;;;;;;;3.85;2.35;;;15.20;43.50;;;;;;6304627;22;46223;-63
2023/12/08 01:11:20;;;;;;;3.08;1.95;;;15.20;43.60;;;;;;6305829;22;45196;-64
2023/12/08 01:13:47;;;;;;;2.85;2.13;;;15.20;43.80;;;;;;6307055;22;45201;-63
2023/12/08 01:16:14;;;;;;;5.07;2.45;;;15.20;44.00;;;;;;6308337;22;45038;-63
2023/12/08 01:18:40;;;;;;;3.40;2.47;;;15.20;44.00;;;;;;6307346;22;46577;-63
2023/12/08 01:21:09;;;;;;;4.20;2.13;;;15.30;44.20;;;;;;6307771;22;45185;-63
2023/12/08 01:23:47;;;;;;;4.32;2.75;;;15.30;44.20;;;;;;6307459;22;45052;-64
2023/12/08 01:26:14;;;;;;;4.70;2.45;;;15.30;44.20;;;;;;6307902;22;45241;-63
2023/12/08 01:29:02;;;;;;;2.30;1.88;;;15.30;44.40;;;;;;6308226;22;45191;-63
2023/12/08 01:31:41;;;;;;;3.63;2.40;;;15.30;44.40;;;;;;6288358;22;44983;-63
2023/12/08 01:34:14;;;;;;;2.95;2.40;;;15.30;44.40;;;;;;6269762;22;45056;-62
2023/12/08 01:37:09;;;;;;;4.20;2.45;;;15.30;43.90;;;;;;6250264;22;45129;-62
2023/12/08 01:42:16;;;;;;;3.20;2.50;;;15.30;43.00;;;;;;6262141;22;45146;-63
2023/12/08 01:45:06;;;;;;;2.85;2.00;;;15.30;42.80;;;;;;6269936;22;45092;-62
2023/12/08 01:47:33;;;;;;;3.55;2.40;;;15.30;42.90;;;;;;6280920;22;45325;-62
2023/12/08 01:50:22;;;;;;;3.40;2.20;;;15.20;42.60;;;;;;6285111;22;46705;-62
2023/12/08 01:53:14;;;;;;;3.35;2.30;;;15.20;42.30;;;;;;6292998;22;45025;-62
2023/12/08 01:56:42;;;;;;;2.75;2.03;;;15.20;42.30;;;;;;6297041;22;45050;-62
2023/12/08 01:59:53;;;;;;;3.42;2.30;;;15.20;42.30;;;;;;6300554;22;45094;-62
2023/12/08 02:02:36;;;;;;;2.65;2.00;;;15.20;42.40;;;;;;6295608;22;46527;-62
2023/12/08 02:05:43;;;;;;;3.00;2.38;;;15.20;42.40;;;;;;6291701;22;45061;-62
2023/12/08 02:08:36;;;;;;;3.30;2.47;;;15.20;42.20;;;;;;6278801;22;45127;-62
2023/12/08 02:11:38;;;;;;;4.43;2.38;;;15.20;42.20;;;;;;6264663;22;45187;-62
2023/12/08 02:14:04;;;;;;;3.28;2.35;;;15.20;42.20;;;;;;6249568;22;46243;-63
2023/12/08 02:16:40;;;;;;;3.72;2.53;;;15.20;42.20;;;;;;6221718;22;45353;-62
2023/12/08 02:19:35;;;;;;;2.53;1.98;;;15.20;42.20;;;;;;6198728;22;45106;-62
2023/12/08 02:22:02;;;;;;;3.22;2.40;;;15.20;42.20;;;;;;6168638;22;45371;-63
2023/12/08 02:25:10;;;;;;;4.35;2.60;;;15.20;42.10;;;;;;6169919;22;47306;-62
2023/12/08 02:31:17;;;;;;;4.53;2.60;;;15.20;42.00;;;;;;6104607;22;44993;-62
2023/12/08 02:33:47;;;;;;;3.58;2.45;;;15.20;41.90;;;;;;6078123;22;45241;-62
2023/12/08 02:36:27;;;;;;;3.88;2.65;;;15.20;42.00;;;;;;6100079;22;45730;-62
2023/12/08 02:39:02;;;;;;;4.57;2.78;;;15.20;42.10;;;;;;6082643;22;45241;-63
2023/12/08 02:41:57;;;;;;;3.53;2.40;;;15.20;41.90;;;;;;6059334;22;45251;-63
2023/12/08 02:44:39;;;;;;;3.85;2.40;;;15.20;42.10;;;;;;6046194;22;45110;-62
2023/12/08 02:47:21;;;;;;;2.95;2.53;;;15.20;42.00;;;;;;6120602;22;46252;-62
2023/12/08 02:50:18;;;;;;;3.65;2.53;;;15.10;41.80;;;;;;6058397;22;45222;-62
2023/12/08 02:53:10;;;;;;;3.72;2.30;;;15.20;41.80;;;;;;6059840;22;45042;-62
2023/12/08 02:56:09;;;;;;;4.07;2.55;;;15.20;41.70;;;;;;6044308;22;45305;-62
2023/12/08 02:58:36;;;;;;;5.30;3.00;;;15.20;41.80;;;;;;6049351;22;46105;-63
2023/12/08 03:01:25;;;;;;;4.10;2.67;;;15.20;41.70;;;;;;6032915;22;45152;-63
2023/12/08 03:03:53;;;;;;;3.42;2.55;;;15.20;41.70;;;;;;6040053;22;45120;-62
2023/12/08 03:06:41;;;;;;;3.83;2.80;;;15.20;41.80;;;;;;6079099;22;45062;-62
2023/12/08 03:09:20;;;;;;;3.17;2.60;;;15.20;41.70;;;;;;6034109;22;47263;-62
2023/12/08 03:12:08;;;;;;;3.03;2.58;;;15.20;41.60;;;;;;6058147;22;45157;-63
2023/12/08 03:15:00;;;;;;;3.42;2.42;;;15.20;41.60;;;;;;6083898;22;45075;-62
2023/12/08 03:17:30;;;;;;;4.35;2.38;;;15.20;41.50;;;;;;6046476;22;45062;-63
2023/12/08 03:19:58;;;;;;;3.13;2.40;;;15.20;41.50;;;;;;6051145;22;47111;-63
2023/12/08 03:22:25;;;;;;;3.58;2.55;;;15.20;41.60;;;;;;6029705;22;45118;-62
2023/12/08 03:24:53;;;;;;;2.53;2.13;;;15.20;42.80;;;;;;6012253;22;45190;-63
2023/12/08 03:27:31;;;;;;;3.30;2.50;;;15.20;47.30;;;;;;6034897;22;45303;-63
2023/12/08 03:30:14;;;;;;;3.15;2.58;;;15.20;45.00;;;;;;6032892;22;45809;-63
2023/12/08 03:32:56;;;;;;;3.47;2.47;;;15.20;43.60;;;;;;6052660;22;45146;-63
2023/12/08 03:35:23;;;;;;;4.28;2.65;;;15.20;42.90;;;;;;6077208;22;45393;-63
2023/12/08 03:38:27;;;;;;;3.25;2.42;;;15.20;42.80;;;;;;6084271;22;45158;-63
2023/12/08 03:41:15;;;;;;;4.70;2.60;;;15.20;42.60;;;;;;6045216;22;45750;-64
2023/12/08 03:43:42;;;;;;;3.47;2.50;;;15.20;42.50;;;;;;6054296;22;45235;-64
2023/12/08 03:46:50;;;;;;;3.67;2.63;;;15.20;42.40;;;;;;6086013;22;45312;-63
2023/12/08 03:49:37;;;;;;;4.47;2.70;;;15.20;42.20;;;;;;6052816;22;45058;-64
2023/12/08 03:52:34;;;;;;;4.32;2.78;;;15.20;42.20;;;;;;6064183;22;46582;-64
2023/12/08 03:55:22;;;;;;;3.67;2.58;;;15.20;42.20;;;;;;6116098;22;44859;-64
2023/12/08 03:58:11;;;;;;;4.00;2.92;;;15.20;42.20;;;;;;6093356;22;45230;-64
2023/12/08 04:01:00;;;;;;;3.65;2.47;;;15.20;42.30;;;;;;6112685;22;45081;-64
2023/12/08 04:03:27;;;;;;;3.20;2.60;;;15.20;42.20;;;;;;6095876;22;47374;-64
2023/12/08 04:05:55;;;;;;;3.30;2.30;;;15.20;42.20;;;;;;6097163;22;45053;-64
2023/12/08 04:08:29;;;;;;;3.80;2.95;;;15.20;42.20;;;;;;6093911;22;45179;-64
2023/12/08 04:11:23;;;;;;;4.20;2.63;;;15.20;42.20;;;;;;6091259;22;45357;-64
2023/12/08 04:13:50;;;;;;;4.57;2.67;;;15.20;42.20;;;;;;6084248;22;46443;-64
2023/12/08 04:16:43;;;;;;;3.50;2.50;;;15.10;42.20;;;;;;6110375;22;45129;-63
2023/12/08 04:19:44;;;;;;;4.07;2.83;;;15.10;42.20;;;;;;6091995;22;44988;-63
2023/12/08 04:22:22;;;;;;;3.80;2.60;;;15.20;42.20;;;;;;6090408;22;45082;-64
2023/12/08 04:25:15;;;;;;;4.70;2.50;;;15.20;42.20;;;;;;6105471;22;47093;-63
2023/12/08 04:27:58;;;;;;;4.13;2.67;;;15.20;42.30;;;;;;6091559;22;45117;-64
2023/12/08 04:30:48;;;;;;;4.22;2.70;;;15.20;42.30;;;;;;6053210;22;45368;-64
2023/12/08 04:33:43;;;;;;;4.63;2.88;;;15.20;42.30;;;;;;6084733;22;45458;-63
2023/12/08 04:36:48;;;;;;;4.80;2.70;;;15.20;42.40;;;;;;6084264;22;46496;-64
2023/12/08 04:39:43;;;;;;;3.42;2.50;;;15.20;42.30;;;;;;6060547;22;45230;-64
2023/12/08 04:42:39;;;;;;;5.07;2.78;;;15.20;42.50;;;;;;6099434;22;45164;-63
2023/12/08 04:48:00;;;;;;;3.40;2.42;;;15.10;42.40;;;;;;6023003;22;45270;-63
2023/12/08 04:50:29;;;;;;;3.90;2.80;;;15.20;42.50;;;;;;6071146;22;44845;-64
2023/12/08 04:53:28;;;;;;;4.13;3.00;;;15.10;42.50;;;;;;6081708;22;45336;-63
2023/12/08 04:56:26;;;;;;;5.00;2.85;;;15.10;42.50;;;;;;6040462;22;45255;-64
2023/12/08 04:58:53;;;;;;;3.67;2.85;;;15.10;42.50;;;;;;6067302;22;46315;-64
2023/12/08 05:01:22;;;;;;;3.95;2.80;;;15.10;42.50;;;;;;6072357;22;45185;-65
2023/12/08 05:04:23;;;;;;;4.80;2.80;;;15.10;42.50;;;;;;6095680;22;45228;-64
2023/12/08 05:07:29;;;;;;;4.20;2.70;;;15.10;42.50;;;;;;6076537;22;45225;-64
2023/12/08 05:10:02;;;;;;;4.35;2.65;;;15.10;42.50;;;;;;6111825;22;46532;-64
2023/12/08 05:12:35;;;;;;;4.53;3.10;;;15.10;42.50;;;;;;6209992;22;45192;-64
2023/12/08 05:15:02;;;;;;;4.30;3.08;;;15.10;42.50;;;;;;6131671;22;45122;-63
2023/12/08 05:17:52;;;;;;;5.13;3.08;;;15.10;42.60;;;;;;6217040;22;45332;-64
2023/12/08 05:20:47;;;;;;;4.32;3.00;;;15.10;42.60;;;;;;6250297;22;45703;-64
2023/12/08 05:23:29;;;;;;;3.10;2.42;;;15.10;42.70;;;;;;6288372;22;45114;-62
2023/12/08 05:26:08;;;;;;;4.95;3.20;;;15.10;42.70;;;;;;6292101;22;45064;-63
2023/12/08 05:28:47;;;;;;;4.60;2.97;;;15.10;42.70;;;;;;6285761;22;45109;-63
2023/12/08 05:31:32;;;;;;;4.05;2.95;;;15.10;42.90;;;;;;6288290;22;47280;-63
2023/12/08 05:34:13;;;;;;;5.70;2.85;;;15.10;42.90;;;;;;6252345;22;45023;-64
2023/12/08 05:36:41;;;;;;;4.85;2.70;;;15.10;43.20;;;;;;6260994;22;45130;-65
2023/12/08 05:39:08;;;;;;;4.18;2.50;;;15.10;43.40;;;;;;6275321;22;45189;-64
2023/12/08 05:41:55;;;;;;;3.50;2.35;;;15.20;43.80;;;;;;6259369;22;45327;-64
2023/12/08 05:44:24;;;;;;;3.55;2.70;;;15.20;44.10;;;;;;6262219;22;45305;-64
2023/12/08 05:46:51;;;;;;;3.85;2.75;;;15.20;43.60;;;;;;6172226;22;45220;-63
2023/12/08 05:49:18;;;;;;;3.97;2.90;;;15.10;43.30;;;;;;6189918;22;45224;-64
2023/12/08 05:51:50;;;;;;;5.53;3.33;;;15.20;43.20;;;;;;6130759;22;46070;-64
2023/12/08 05:54:20;;;;;;;5.90;3.45;;;15.20;42.80;;;;;;6130346;22;45012;-64
2023/12/08 05:57:13;;;;;;;4.63;3.10;;;15.20;42.70;;;;;;6137237;22;45336;-63
2023/12/08 05:59:42;;;;;;;4.25;3.08;;;15.20;42.50;;;;;;6130290;22;44914;-64
2023/12/08 06:02:14;;;;;;;4.05;3.13;;;15.20;42.50;;;;;;6205962;22;46264;-63
2023/12/08 06:04:43;;;;;;;4.68;3.03;;;15.20;42.40;;;;;;6242684;22;45293;-64
2023/12/08 06:07:11;;;;;;;4.55;3.20;;;15.10;42.30;;;;;;6193200;22;45366;-63
2023/12/08 06:10:07;;;;;;;4.20;3.03;;;15.10;42.20;;;;;;6167334;22;44897;-63
2023/12/08 06:12:37;;;;;;;7.22;3.78;;;15.10;42.20;;;;;;6157446;22;45384;-63
2023/12/08 06:15:20;;;;;;;5.63;3.38;;;15.10;42.40;;;;;;6147915;22;45289;-63
2023/12/08 06:17:48;;;;;;;4.82;3.05;;;15.10;42.30;;;;;;6198802;22;45037;-62
2023/12/08 06:20:43;;;;;;;6.60;2.90;;;15.10;42.20;;;;;;6256301;22;45173;-63
2023/12/08 06:23:42;;;;;;;4.95;3.20;;;15.10;43.00;;;;;;6187454;22;46307;-63
2023/12/08 06:26:09;;;;;;;4.95;2.90;;;15.10;43.10;;;;;;6188619;22;45062;-64
2023/12/08 06:29:08;;;;;;;4.03;3.05;;;15.10;43.30;;;;;;6165905;22;44775;-63
2023/12/08 06:32:09;;;;;;;4.80;2.83;;;15.10;43.30;;;;;;6144356;22;45116;-63
2023/12/08 06:35:21;;;;;;;3.55;2.60;;;15.20;43.70;;;;;;6137758;22;46435;-63
2023/12/08 06:38:04;;;;;;;5.22;2.78;;;15.20;43.90;;;;;;6129361;22;45100;-64
2023/12/08 06:40:56;;;;;;;4.80;3.03;;;15.20;44.10;;;;;;6105584;22;45211;-64
2023/12/08 06:43:35;;;;;;;4.45;2.70;;;15.20;44.10;;;;;;6102403;22;45331;-64
2023/12/08 06:46:07;;;;;;;5.20;3.00;;;15.20;44.10;;;;;;6090431;22;45557;-64
2023/12/08 06:48:45;;;;;;;5.60;2.97;;;15.20;44.30;;;;;;6102988;22;45200;-64
2023/12/08 06:51:13;;;;;;;3.80;2.92;;;15.30;44.40;;;;;;6079738;22;45246;-64
2023/12/08 06:54:08;;;;;;;4.25;2.33;;;15.30;44.40;;;;;;6085701;22;45150;-63
2023/12/08 06:56:44;;;;;;;3.53;2.80;;;15.30;44.20;;;;;;6057447;22;46249;-64
2023/12/08 06:59:15;;;;;;;4.32;3.03;;;15.20;44.40;;;;;;6065440;22;45215;-64
2023/12/08 07:01:43;;;;;;;4.13;2.80;;;15.30;44.50;;;;;;6058743;22;45133;-64
2023/12/08 07:04:21;;;;;;;4.85;3.15;;;15.30;44.60;;;;;;6049979;22;44828;-64
2023/12/08 07:06:57;;;;;;;4.60;3.13;;;15.20;44.60;;;;;;6030927;22;46506;-64
2023/12/08 07:09:53;;;;;;;3.95;2.67;;;15.20;44.60;;;;;;6061134;22;45230;-64
2023/12/08 07:12:41;;;;;;;4.75;2.97;;;15.30;44.90;;;;;;6062046;22;45381;-64
2023/12/08 07:15:30;;;;;;;4.93;2.83;;;15.30;45.10;;;;;;6029477;22;45186;-64
2023/12/08 07:18:22;;;;;;;4.05;2.50;;;15.30;45.00;;;;;;6020670;22;46503;-64
2023/12/08 07:20:51;;;;;;;3.40;2.40;;;15.30;45.10;;;;;;6062271;22;45137;-64
2023/12/08 07:23:42;;;;;;;5.88;3.33;;;15.30;45.20;;;;;;6044869;22;45204;-64
2023/12/08 07:26:33;;;;;;;3.63;2.78;;;15.30;45.10;;;;;;6019455;22;45233;-64
2023/12/08 07:29:26;;;;;;;4.10;2.60;;;15.30;45.30;;;;;;6042168;22;46510;-64
2023/12/08 07:32:12;;;;;;;5.15;3.00;;;15.30;45.50;;;;;;6058336;22;45360;-65
2023/12/08 07:34:52;;;;;;;4.18;2.70;;;15.30;45.40;;;;;;6023134;22;45059;-64
2023/12/08 07:37:20;;;;;;;4.15;2.75;;;15.30;45.50;;;;;;6058236;22;45108;-65
2023/12/08 07:40:17;;;;;;;3.58;2.72;;;15.30;45.30;;;;;;6127132;22;46303;-64
2023/12/08 07:42:44;;;;;;;4.03;2.80;;;15.30;45.50;;;;;;6221627;22;45194;-65
2023/12/08 07:45:11;;;;;;;4.78;2.47;;;15.30;45.40;;;;;;6199265;22;45059;-65
2023/12/08 07:47:53;;;;;;;3.70;2.80;;;15.30;46.60;;;;;;6190748;22;45191;-65
2023/12/08 07:50:41;;;;;;;4.28;2.80;;;15.30;45.60;;;;;;6214226;22;46217;-64
2023/12/08 07:53:10;;;;;;;4.43;3.08;;;15.30;45.60;;;;;;6223829;22;45071;-65
2023/12/08 07:55:41;;;;;;;3.97;2.65;;;15.30;45.50;;;;;;6221073;22;45124;-65
2023/12/08 07:58:39;;;;;;;4.55;3.00;;;15.30;45.50;;;;;;6192226;22;45101;-64
2023/12/08 08:04:51;;;;;;;5.75;2.83;;;15.30;45.60;;;;;;6183670;22;45061;-64
2023/12/08 08:07:48;;;;;;;6.13;2.92;;;15.30;45.60;;;;;;6228099;22;45270;-64
2023/12/08 08:10:34;;;;;;;3.85;2.65;;;15.30;45.80;;;;;;6187013;22;44708;-65
2023/12/08 08:13:27;;;;;;;3.58;2.47;;;15.30;45.60;;;;;;6206376;22;47499;-64
2023/12/08 08:15:54;;;;;;;4.15;2.28;;;15.30;45.70;;;;;;6221725;22;45118;-64
2023/12/08 08:18:41;;;;;;;3.33;2.15;;;15.30;45.90;;;;;;6226406;22;45157;-64
2023/12/08 08:21:26;;;;;;;4.63;2.47;;;15.30;45.80;;;;;;6182504;22;45081;-64
2023/12/08 08:24:23;;;;;;;3.80;2.25;;;15.30;45.90;;;;;;6203541;22;47561;-64
2023/12/08 08:27:11;;;;;;;4.78;2.78;;;15.30;46.00;;;;;;6217376;22;45211;-64
2023/12/08 08:29:55;;;;;;;5.22;2.55;;;15.30;46.00;;;;;;6227365;22;45217;-64
2023/12/08 08:32:41;;;;;;;4.05;2.67;;;15.30;46.20;;;;;;6198461;22;45601;-65
2023/12/08 08:35:21;;;;;;;3.97;2.60;;;15.30;46.10;;;;;;6189630;22;46219;-65
2023/12/08 08:38:25;;;;;;;5.38;2.72;;;15.30;46.10;;;;;;6202300;22;45097;-64
2023/12/08 08:41:14;;;;;;;4.32;2.53;;;15.30;46.30;;;;;;6224524;22;45238;-64
2023/12/08 08:43:53;;;;;;;3.10;2.40;;;15.30;46.50;;;;;;6214032;22;45274;-64
2023/12/08 08:46:28;;;;;;;3.45;2.47;;;15.30;46.60;;;;;;6173509;22;45129;-65
2023/12/08 08:49:18;;;;;;;3.72;2.70;;;15.30;46.40;;;;;;6183361;22;45130;-64
2023/12/08 08:51:59;;;;;;;3.10;2.53;;;15.30;46.60;;;;;;6192253;22;44601;-64
2023/12/08 08:57:35;;;;;;;4.13;2.60;;;15.30;46.80;;;;;;6201679;22;45122;-64
2023/12/08 09:00:25;;;;;;;4.65;2.70;;;15.30;46.80;;;;;;6207248;22;45121;-65
2023/12/08 09:03:20;;;;;;;3.78;2.85;;;15.30;46.90;;;;;;6192971;22;45121;-65
2023/12/08 09:06:08;;;;;;;4.32;2.95;;;15.30;47.00;;;;;;6171373;22;45245;-65
2023/12/08 09:08:45;;;;;;;3.97;2.70;;;15.30;47.10;;;;;;6186938;22;47140;-64
2023/12/08 09:11:29;;;;;;;3.78;2.45;;;15.30;47.20;;;;;;6196037;22;45275;-64
2023/12/08 09:13:56;;;;;;;3.50;2.78;;;15.30;47.30;;;;;;6201784;22;44960;-65
2023/12/08 09:16:46;;;;;;;4.78;2.72;;;15.30;47.50;;;;;;6207530;22;45093;-64
2023/12/08 09:19:17;;;;;;;4.63;3.03;;;15.30;47.50;;;;;;6202479;22;46600;-65
2023/12/08 09:21:44;;;;;;;5.10;2.92;;;15.30;47.50;;;;;;6186932;22;45199;-65
2023/12/08 09:24:12;;;;;;;4.43;2.75;;;15.30;47.60;;;;;;6178345;22;45262;-65
2023/12/08 09:26:39;;;;;;;4.25;2.58;;;15.30;47.80;;;;;;6179076;22;45051;-65
2023/12/08 09:29:06;;;;;;;4.05;2.90;;;15.30;47.70;;;;;;6175572;22;46290;-65
2023/12/08 09:44:56;;;;;;;4.88;3.05;;;15.40;48.20;;;;;;6155489;22;45177;-64
2023/12/08 09:47:27;;;;;;;3.80;2.65;;;15.40;48.20;;;;;;6182975;22;45098;-65
2023/12/08 09:50:13;;;;;;;3.90;2.90;;;15.40;48.30;;;;;;6188781;22;45919;-64
2023/12/08 09:52:54;;;;;;;4.07;2.72;;;15.40;48.50;;;;;;6191107;22;45366;-65
2023/12/08 09:55:22;;;;;;;5.45;3.47;;;15.40;48.50;;;;;;6184224;22;45251;-65
2023/12/08 09:58:22;;;;;;;3.38;2.60;;;15.40;48.50;;;;;;6183895;22;45093;-65
2023/12/08 10:00:58;;;;;;;3.13;2.33;;;15.40;48.60;;;;;;6171907;22;46070;-64
2023/12/08 10:03:35;;;;;;;4.35;2.92;;;15.40;48.70;;;;;;6165923;22;45220;-65
2023/12/08 10:06:13;;;;;;;4.22;2.70;;;15.30;48.50;;;;;;6164676;22;45113;-65
2023/12/08 10:09:12;;;;;;;4.60;2.88;;;15.40;48.80;;;;;;6174485;22;45474;-64
2023/12/08 10:11:39;;;;;;;5.95;3.20;;;15.30;48.70;;;;;;6172069;22;47851;-65
2023/12/08 10:14:09;;;;;;;4.07;2.83;;;15.40;49.00;;;;;;6168698;22;45101;-65
2023/12/08 10:16:37;;;;;;;4.13;2.67;;;15.40;49.20;;;;;;6163303;22;45282;-65
2023/12/08 10:19:22;;;;;;;4.72;2.88;;;15.40;49.20;;;;;;6163889;22;45315;-64
2023/12/08 10:22:07;;;;;;;4.72;2.83;;;15.40;49.50;;;;;;6172884;22;47141;-66
2023/12/08 10:25:11;;;;;;;4.47;3.00;;;15.40;49.70;;;;;;6200928;22;45125;-64
2023/12/08 10:28:01;;;;;;;5.68;2.80;;;15.40;49.70;;;;;;6184634;22;45044;-64
2023/12/08 10:33:41;;;;;;;5.03;3.13;;;15.40;49.70;;;;;;6168499;22;46110;-64
2023/12/08 10:36:09;;;;;;;4.80;3.00;;;15.40;49.70;;;;;;6176839;22;45239;-65
2023/12/08 10:39:09;;;;;;;4.00;2.83;;;15.40;49.70;;;;;;6179656;22;45261;-64
2023/12/08 10:42:10;;;;;;;4.38;2.88;;;15.40;49.70;;;;;;6180082;22;45259;-64
2023/12/08 10:44:58;;;;;;;3.75;2.65;;;15.40;49.70;;;;;;6181950;22;45735;-64
2023/12/08 10:47:28;;;;;;;3.67;2.60;;;15.40;49.70;;;;;;6184245;22;45288;-64
2023/12/08 10:50:16;;;;;;;3.92;2.70;;;15.40;49.70;;;;;;6180373;22;45229;-64
2023/12/08 10:59:33;;;;;;;5.10;3.05;;;15.40;49.70;;;;;;6096786;22;45253;-64
2023/12/08 11:02:40;;;;;;;4.25;3.25;;;15.40;49.60;;;;;;6139960;22;45349;-64
2023/12/08 11:05:40;;;;;;;4.53;3.13;;;15.40;49.80;;;;;;6116162;22;45344;-65
2023/12/08 11:08:35;;;;;;;4.15;2.85;;;15.40;49.70;;;;;;6118831;22;46466;-64
2023/12/08 11:14:47;;;;;;;5.53;2.97;;;15.50;50.20;;;;;;6085205;22;45052;-64
2023/12/08 11:17:48;;;;;;;5.13;2.72;;;15.40;50.00;;;;;;6094820;22;44980;-65
2023/12/08 11:20:16;;;;;;;4.75;2.80;;;15.40;51.40;;;;;;6111287;22;47011;-64
2023/12/08 11:23:07;;;;;;;4.60;2.90;;;15.50;50.10;;;;;;6110367;22;45155;-64
2023/12/08 11:26:04;;;;;;;3.95;2.65;;;15.50;50.60;;;;;;6088514;22;45535;-64
2023/12/08 11:32:29;;;;;;;5.13;2.78;;;15.50;50.70;;;;;;6036912;22;45443;-65
2023/12/08 11:35:32;;;;;;;4.15;3.28;;;15.50;50.70;;;;;;6089436;22;45500;-64
2023/12/08 11:38:26;;;;;;;5.55;3.75;;;15.40;49.70;;;;;;6106372;22;45247;-64
2023/12/08 11:41:47;;;;;;;5.93;4.05;;;15.40;49.70;;;;;;6081970;22;45510;-64
2023/12/08 11:44:45;;;;;;;5.75;3.40;;;15.40;49.70;;;;;;6077792;22;47199;-64
2023/12/08 11:47:31;;;;;;;5.25;3.30;;;15.40;49.70;;;;;;6085846;22;45359;-64
2023/12/08 11:50:25;;;;;;;5.13;3.42;;;15.40;49.70;;;;;;6076664;22;45409;-65
2023/12/08 11:52:53;;;;;;;3.55;2.80;;;15.30;49.60;;;;;;6099275;22;45247;-65
2023/12/08 11:55:36;;;;;;;5.55;3.40;;;15.40;50.90;;;;;;6130786;22;46322;-65
2023/12/08 11:58:07;;;;;;;5.07;3.08;;;15.40;49.40;;;;;;6122628;22;45355;-65
2023/12/08 12:00:41;;;;;;;4.57;3.10;;;15.40;49.40;;;;;;6127635;22;45246;-64
2023/12/08 12:03:36;;;;;;;4.10;3.22;;;15.40;50.00;;;;;;6135752;22;45250;-65
2023/12/08 12:06:30;;;;;;;5.18;3.50;;;15.40;49.70;;;;;;6139099;22;47425;-65
2023/12/08 12:23:13;;;;;;;5.35;2.78;;;15.40;49.70;;;;;;6140475;22;1243683;-63
2023/12/08 12:25:43;;;;;;;4.88;2.95;;;15.40;49.70;;;;;;6088742;22;45277;-62
2023/12/08 12:28:25;;;;;;;4.35;2.90;;;15.40;49.70;;;;;;6171139;22;45337;-64
2023/12/08 12:30:53;;;;;;;5.00;3.03;;;15.40;49.70;;;;;;6127534;22;45209;-64
2023/12/08 12:33:19;;;;;;;4.15;2.88;;;15.40;49.80;;;;;;6128406;22;47582;-64
2023/12/08 12:36:19;;;;;;;3.97;3.08;;;15.40;49.80;;;;;;6135322;22;45256;-64
2023/12/08 12:39:11;;;;;;;5.55;2.97;;;15.40;49.70;;;;;;6103192;22;45452;-62
2023/12/08 12:41:40;;;;;;;4.65;2.90;;;15.40;49.70;;;;;;6091114;22;45173;-64
2023/12/08 12:44:07;;;;;;;4.32;3.10;;;15.50;49.80;;;;;;6089878;22;46734;-63
2023/12/08 12:46:45;;;;;;;4.97;2.90;;;15.50;49.60;;;;;;6080537;22;45189;-62
2023/12/08 12:49:15;;;;;;;3.42;2.50;;;15.50;49.40;;;;;;6042259;22;45408;-64
2023/12/08 12:51:42;;;;;;;4.25;2.90;;;15.50;49.40;;;;;;6144212;22;45283;-64
2023/12/08 12:54:42;;;;;;;3.38;2.55;;;15.50;49.20;;;;;;6154124;22;46507;-63
2023/12/08 12:58:23;;;;;;;3.67;2.60;;;15.50;49.20;;;;;;6109324;22;45655;-63
2023/12/08 13:01:01;;;;;;;4.25;2.60;;;15.50;49.20;;;;;;6113732;22;45351;-64
2023/12/08 13:03:47;;;;;;;4.28;2.72;;;15.50;49.80;;;;;;6100211;22;45198;-64
2023/12/08 13:06:36;;;;;;;4.45;2.83;;;15.50;49.80;;;;;;6093410;22;47001;-63
2023/12/08 13:09:05;;;;;;;3.70;2.53;;;15.40;49.70;;;;;;6111728;22;45075;-64
2023/12/08 13:11:52;;;;;;;3.78;2.83;;;15.40;49.70;;;;;;6119854;22;45266;-64
2023/12/08 13:14:31;;;;;;;3.78;2.65;;;15.40;49.70;;;;;;6102609;22;45265;-64
2023/12/08 13:17:14;;;;;;;4.15;2.80;;;15.40;49.70;;;;;;6126261;22;46366;-63
2023/12/08 13:19:40;;;;;;;4.82;2.60;;;15.40;49.70;;;;;;6130469;22;45185;-63
2023/12/08 13:22:44;;;;;;;3.72;2.60;;;15.40;49.70;;;;;;6146555;22;45138;-63
2023/12/08 13:25:10;;;;;;;3.70;2.53;;;15.40;49.70;;;;;;6103014;22;45273;-64
2023/12/08 13:27:39;;;;;;;4.05;2.83;;;15.40;49.70;;;;;;6121681;22;46393;-63
2023/12/08 13:30:33;;;;;;;4.68;2.90;;;15.40;49.70;;;;;;6161369;22;45366;-63
2023/12/08 13:32:59;;;;;;;4.10;2.83;;;15.40;49.70;;;;;;6129761;22;45273;-64
2023/12/08 13:35:29;;;;;;;5.45;2.80;;;15.40;49.70;;;;;;6097995;22;45240;-64
2023/12/08 13:38:12;;;;;;;4.38;2.90;;;15.40;49.80;;;;;;6124169;22;46523;-64
2023/12/08 13:40:39;;;;;;;4.93;2.97;;;15.40;49.70;;;;;;6119206;22;45047;-64
2023/12/08 13:43:21;;;;;;;5.10;2.80;;;15.40;49.70;;;;;;6130238;22;45282;-65
2023/12/08 13:45:47;;;;;;;4.28;2.70;;;15.40;49.70;;;;;;6077559;22;45339;-63
2023/12/08 13:48:27;;;;;;;4.80;2.95;;;15.40;49.70;;;;;;6114108;22;46607;-64
2023/12/08 13:51:23;;;;;;;4.90;2.92;;;15.40;49.70;;;;;;6097185;22;45055;-63
2023/12/08 13:54:11;;;;;;;4.18;2.65;;;15.30;49.60;;;;;;6122148;22;45235;-64
2023/12/08 13:56:39;;;;;;;4.00;2.60;;;15.40;49.70;;;;;;6087756;22;45261;-64
2023/12/08 13:59:41;;;;;;;3.72;2.80;;;15.30;49.60;;;;;;6100285;22;47126;-63
2023/12/08 14:02:12;;;;;;;6.32;2.63;;;15.30;49.60;;;;;;6116205;22;45440;-64
2023/12/08 14:05:05;;;;;;;4.47;2.47;;;15.30;49.60;;;;;;6158579;22;45139;-63
2023/12/08 14:07:32;;;;;;;5.63;2.90;;;15.30;49.60;;;;;;6109987;22;45328;-64
2023/12/08 14:09:58;;;;;;;4.22;2.42;;;15.30;49.60;;;;;;6112529;22;47424;-63
2023/12/08 14:12:53;;;;;;;5.35;2.97;;;15.40;49.70;;;;;;6126805;22;45365;-63
2023/12/08 14:15:23;;;;;;;4.25;2.78;;;15.30;49.60;;;;;;6177497;22;45348;-63
2023/12/08 14:21:00;;;;;;;6.85;3.03;;;15.30;49.60;;;;;;6153348;22;45969;-63
2023/12/08 14:23:42;;;;;;;5.97;3.08;;;15.40;49.70;;;;;;6171067;22;45271;-63
2023/12/08 14:26:29;;;;;;;8.50;3.92;;;15.40;49.70;;;;;;6166270;22;45098;-61
2023/12/08 14:29:18;;;;;;;7.78;4.45;;;15.40;49.70;;;;;;6121399;22;45433;-63
2023/12/08 14:31:47;;;;;;;8.10;4.10;;;15.40;49.70;;;;;;6201085;22;47300;-63
2023/12/08 14:34:36;;;;;;;9.85;4.97;;;15.40;49.70;;;;;;6235695;22;45163;-62
2023/12/08 14:37:13;;;;;;;9.75;4.95;;;15.40;49.70;;;;;;6249997;22;45265;-62
2023/12/08 14:39:41;;;;;;;11.73;5.13;;;15.40;49.70;;;;;;6221575;22;45168;-63
2023/12/08 14:42:10;;;;;;;11.82;5.40;;;15.40;49.70;;;;;;6226836;22;45173;-62
2023/12/08 14:45:05;;;;;;;8.95;4.50;;;15.30;49.60;;;;;;6261690;22;45161;-62
2023/12/08 14:47:34;;;;;;;9.32;4.20;;;15.30;50.00;;;;;;6254809;22;45233;-63
2023/12/08 14:50:29;;;;;;;8.68;4.07;;;15.30;50.00;;;;;;6216308;22;45209;-62
2023/12/08 14:53:15;;;;;;;6.38;3.45;;;15.30;49.90;;;;;;6165955;22;46065;-62
2023/12/08 14:55:55;;;;;;;5.75;2.83;;;15.30;50.00;;;;;;6177949;22;45188;-62
2023/12/08 14:58:48;;;;;;;6.82;3.25;;;15.30;50.00;;;;;;6197338;22;45381;-62
2023/12/08 15:01:25;;;;;;;5.72;2.88;;;15.30;50.30;;;;;;6151911;22;45327;-62
2023/12/08 15:04:20;;;;;;;7.18;2.90;;;15.30;50.40;;;;;;6147393;22;47487;-62
2023/12/08 15:07:07;;;;;;;10.85;4.35;;;15.30;50.60;;;;;;6168889;22;45421;-62